Copper Center, Alaska
Current Conditions -  °F | °C
As of 3:53 AM on Thursday 30 Oct 2014 (Local Time) from PAGK Reporting Station
Clear Clear  
Wind Chill: -3°   Ceiling: Unl
Heat Index: -3°   Visibility: 10mi
Dew Point: -6°   Wind: 0mph
Humidity: 87%   Direction: NA
Pressure: 29.7"   Gusts: NA
Location:  61.95°N, 145.31°W
Report Text: PAGK 301153Z AUTO 00000KT 10SM CLR M19/M21 A2970 RMK AO2 SLP116 60003 70003 T11941211 11156 21194 58015 TSNO
Loading
Personal Weather Stations






























Interactive Weather Map
Tropical Storm Tracking
New forecast layout! Learn more

10-Day Weather Forecast

Advertisements
Track Severe Weather on mobile